sensor_id;sensor_type;location;lat;lon;timestamp;pressure;altitude;pressure_sealevel;temperature;humidity
21960;BME280;11144;43.030;25.108;2023-02-14T00:01:22;100780.50;;;-0.90;100.00
21960;BME280;11144;43.030;25.108;2023-02-14T00:02:55;100784.75;;;-0.92;100.00
21960;BME280;11144;43.030;25.108;2023-02-14T00:04:28;100769.91;;;-0.96;100.00
21960;BME280;11144;43.030;25.108;2023-02-14T00:06:09;100771.47;;;-1.01;100.00
21960;BME280;11144;43.030;25.108;2023-02-14T00:07:43;100767.75;;;-1.09;100.00
21960;BME280;11144;43.030;25.108;2023-02-14T00:09:17;100777.91;;;-1.15;100.00
21960;BME280;11144;43.030;25.108;2023-02-14T00:10:50;100784.25;;;-1.07;100.00
21960;BME280;11144;43.030;25.108;2023-02-14T00:12:23;100784.44;;;-1.01;100.00
21960;BME280;11144;43.030;25.108;2023-02-14T00:13:57;100782.72;;;-1.00;100.00
21960;BME280;11144;43.030;25.108;2023-02-14T00:15:48;100787.22;;;-0.95;100.00
21960;BME280;11144;43.030;25.108;2023-02-14T00:17:21;100783.91;;;-0.91;100.00
21960;BME280;11144;43.030;25.108;2023-02-14T00:18:54;100781.41;;;-0.88;100.00
21960;BME280;11144;43.030;25.108;2023-02-14T00:20:36;100797.16;;;-0.83;100.00
21960;BME280;11144;43.030;25.108;2023-02-14T00:22:13;100786.81;;;-0.82;100.00
21960;BME280;11144;43.030;25.108;2023-02-14T00:23:46;100785.97;;;-0.81;100.00
21960;BME280;11144;43.030;25.108;2023-02-14T00:25:20;100786.94;;;-0.79;100.00
21960;BME280;11144;43.030;25.108;2023-02-14T00:26:53;100782.75;;;-0.74;100.00
21960;BME280;11144;43.030;25.108;2023-02-14T00:28:25;100781.09;;;-0.72;100.00
21960;BME280;11144;43.030;25.108;2023-02-14T00:29:59;100770.72;;;-0.72;100.00
21960;BME280;11144;43.030;25.108;2023-02-14T00:31:34;100790.81;;;-0.66;100.00
21960;BME280;11144;43.030;25.108;2023-02-14T00:33:09;100776.88;;;-0.68;100.00
21960;BME280;11144;43.030;25.108;2023-02-14T00:34:42;100775.91;;;-0.72;100.00
21960;BME280;11144;43.030;25.108;2023-02-14T00:36:17;100753.59;;;-0.92;100.00
21960;BME280;11144;43.030;25.108;2023-02-14T00:37:55;100775.22;;;-0.93;100.00
21960;BME280;11144;43.030;25.108;2023-02-14T00:39:29;100769.91;;;-0.96;100.00
21960;BME280;11144;43.030;25.108;2023-02-14T00:41:02;100775.94;;;-0.97;100.00
21960;BME280;11144;43.030;25.108;2023-02-14T00:42:35;100773.28;;;-0.98;100.00
21960;BME280;11144;43.030;25.108;2023-02-14T00:44:10;100769.69;;;-1.02;100.00
21960;BME280;11144;43.030;25.108;2023-02-14T00:45:43;100762.47;;;-1.12;100.00
21960;BME280;11144;43.030;25.108;2023-02-14T00:47:17;100761.63;;;-1.11;100.00
21960;BME280;11144;43.030;25.108;2023-02-14T00:48:50;100754.72;;;-1.10;100.00
21960;BME280;11144;43.030;25.108;2023-02-14T00:50:24;100765.28;;;-1.04;100.00
21960;BME280;11144;43.030;25.108;2023-02-14T00:51:57;100780.06;;;-1.02;100.00
21960;BME280;11144;43.030;25.108;2023-02-14T00:53:32;100765.44;;;-1.00;100.00
21960;BME280;11144;43.030;25.108;2023-02-14T00:55:05;100761.22;;;-0.98;100.00
21960;BME280;11144;43.030;25.108;2023-02-14T00:56:38;100762.19;;;-0.94;100.00
21960;BME280;11144;43.030;25.108;2023-02-14T00:58:13;100761.28;;;-0.95;100.00
21960;BME280;11144;43.030;25.108;2023-02-14T00:59:46;100759.75;;;-0.90;100.00
21960;BME280;11144;43.030;25.108;2023-02-14T01:01:20;100755.41;;;-0.89;100.00
21960;BME280;11144;43.030;25.108;2023-02-14T01:02:53;100759.84;;;-0.87;100.00
21960;BME280;11144;43.030;25.108;2023-02-14T01:04:26;100755.47;;;-0.88;100.00
21960;BME280;11144;43.030;25.108;2023-02-14T01:06:00;100752.88;;;-0.88;100.00
21960;BME280;11144;43.030;25.108;2023-02-14T01:07:34;100746.03;;;-0.86;100.00
21960;BME280;11144;43.030;25.108;2023-02-14T01:09:08;100749.53;;;-0.84;100.00
21960;BME280;11144;43.030;25.108;2023-02-14T01:10:42;100747.56;;;-0.91;100.00
21960;BME280;11144;43.030;25.108;2023-02-14T01:12:15;100751.31;;;-0.83;100.00
21960;BME280;11144;43.030;25.108;2023-02-14T01:13:49;100736.22;;;-0.94;100.00
21960;BME280;11144;43.030;25.108;2023-02-14T01:15:22;100747.41;;;-0.97;100.00
21960;BME280;11144;43.030;25.108;2023-02-14T01:16:55;100739.59;;;-0.97;100.00
21960;BME280;11144;43.030;25.108;2023-02-14T01:18:28;100726.44;;;-1.03;100.00
21960;BME280;11144;43.030;25.108;2023-02-14T01:20:00;100722.75;;;-1.09;100.00
21960;BME280;11144;43.030;25.108;2023-02-14T01:21:34;100721.06;;;-1.09;100.00
21960;BME280;11144;43.030;25.108;2023-02-14T01:23:08;100725.94;;;-1.18;100.00
21960;BME280;11144;43.030;25.108;2023-02-14T01:24:42;100717.91;;;-1.25;100.00
21960;BME280;11144;43.030;25.108;2023-02-14T01:26:16;100713.47;;;-1.28;100.00
21960;BME280;11144;43.030;25.108;2023-02-14T01:27:50;100712.59;;;-1.28;100.00
21960;BME280;11144;43.030;25.108;2023-02-14T01:29:23;100710.06;;;-1.27;100.00
21960;BME280;11144;43.030;25.108;2023-02-14T01:30:56;100703.09;;;-1.28;100.00
21960;BME280;11144;43.030;25.108;2023-02-14T01:32:29;100710.81;;;-1.31;100.00
21960;BME280;11144;43.030;25.108;2023-02-14T01:34:03;100711.81;;;-1.26;100.00
21960;BME280;11144;43.030;25.108;2023-02-14T01:35:36;100708.50;;;-1.22;100.00
21960;BME280;11144;43.030;25.108;2023-02-14T01:37:09;100711.59;;;-1.32;100.00
21960;BME280;11144;43.030;25.108;2023-02-14T01:38:42;100706.53;;;-1.29;100.00
21960;BME280;11144;43.030;25.108;2023-02-14T01:40:16;100699.78;;;-1.24;100.00
21960;BME280;11144;43.030;25.108;2023-02-14T01:41:49;100706.53;;;-1.29;100.00
21960;BME280;11144;43.030;25.108;2023-02-14T01:43:24;100696.88;;;-1.33;100.00
21960;BME280;11144;43.030;25.108;2023-02-14T01:44:59;100701.66;;;-1.20;100.00
21960;BME280;11144;43.030;25.108;2023-02-14T01:46:36;100703.59;;;-1.13;100.00
21960;BME280;11144;43.030;25.108;2023-02-14T01:48:09;100690.84;;;-1.07;100.00
21960;BME280;11144;43.030;25.108;2023-02-14T01:49:46;100689.25;;;-1.03;100.00
21960;BME280;11144;43.030;25.108;2023-02-14T01:51:22;100688.56;;;-0.98;100.00
21960;BME280;11144;43.030;25.108;2023-02-14T01:53:01;100678.25;;;-0.95;100.00
21960;BME280;11144;43.030;25.108;2023-02-14T01:54:38;100685.91;;;-0.99;100.00
21960;BME280;11144;43.030;25.108;2023-02-14T01:56:18;100673.84;;;-0.97;100.00
21960;BME280;11144;43.030;25.108;2023-02-14T01:57:57;100676.50;;;-0.96;100.00
21960;BME280;11144;43.030;25.108;2023-02-14T01:59:34;100658.22;;;-0.99;100.00
21960;BME280;11144;43.030;25.108;2023-02-14T02:01:08;100655.53;;;-1.02;100.00
21960;BME280;11144;43.030;25.108;2023-02-14T02:02:42;100653.78;;;-1.03;100.00
21960;BME280;11144;43.030;25.108;2023-02-14T02:04:21;100648.63;;;-1.01;100.00
21960;BME280;11144;43.030;25.108;2023-02-14T02:06:03;100644.28;;;-1.02;100.00
21960;BME280;11144;43.030;25.108;2023-02-14T02:07:39;100636.56;;;-1.01;100.00
21960;BME280;11144;43.030;25.108;2023-02-14T02:09:17;100643.50;;;-1.00;100.00
21960;BME280;11144;43.030;25.108;2023-02-14T02:10:52;100641.88;;;-0.96;100.00
21960;BME280;11144;43.030;25.108;2023-02-14T02:12:27;100642.75;;;-0.96;100.00
21960;BME280;11144;43.030;25.108;2023-02-14T02:14:02;100644.56;;;-0.93;100.00
21960;BME280;11144;43.030;25.108;2023-02-14T02:15:44;100640.06;;;-0.99;100.00
21960;BME280;11144;43.030;25.108;2023-02-14T02:17:23;100644.44;;;-0.98;100.00
21960;BME280;11144;43.030;25.108;2023-02-14T02:25:37;100626.59;;;-0.87;100.00
21960;BME280;11144;43.030;25.108;2023-02-14T02:27:36;100623.09;;;-0.88;100.00
21960;BME280;11144;43.030;25.108;2023-02-14T02:29:24;100630.09;;;-0.87;100.00
21960;BME280;11144;43.030;25.108;2023-02-14T02:31:31;100641.22;;;-0.89;100.00
21960;BME280;11144;43.030;25.108;2023-02-14T02:33:42;100642.13;;;-0.89;100.00
21960;BME280;11144;43.030;25.108;2023-02-14T02:37:30;100645.47;;;-0.93;100.00
21960;BME280;11144;43.030;25.108;2023-02-14T02:39:14;100645.47;;;-0.93;100.00
21960;BME280;11144;43.030;25.108;2023-02-14T02:41:02;100634.69;;;-1.05;100.00
21960;BME280;11144;43.030;25.108;2023-02-14T02:42:47;100627.56;;;-1.12;100.00
21960;BME280;11144;43.030;25.108;2023-02-14T02:44:30;100636.66;;;-1.24;100.00
21960;BME280;11144;43.030;25.108;2023-02-14T02:46:10;100630.41;;;-1.31;100.00
21960;BME280;11144;43.030;25.108;2023-02-14T02:48:06;100635.88;;;-1.22;100.00
21960;BME280;11144;43.030;25.108;2023-02-14T02:49:44;100630.59;;;-1.25;100.00
21960;BME280;11144;43.030;25.108;2023-02-14T02:51:50;100617.88;;;-1.17;100.00
21960;BME280;11144;43.030;25.108;2023-02-14T02:53:45;100626.50;;;-1.17;100.00
21960;BME280;11144;43.030;25.108;2023-02-14T02:55:26;100621.38;;;-1.15;100.00
21960;BME280;11144;43.030;25.108;2023-02-14T02:57:04;100627.47;;;-1.15;100.00
21960;BME280;11144;43.030;25.108;2023-02-14T02:58:42;100620.59;;;-1.13;100.00
21960;BME280;11144;43.030;25.108;2023-02-14T03:00:17;100606.59;;;-1.18;100.00
21960;BME280;11144;43.030;25.108;2023-02-14T03:01:55;100607.44;;;-1.19;100.00
21960;BME280;11144;43.030;25.108;2023-02-14T03:03:31;100604.84;;;-1.19;100.00
21960;BME280;11144;43.030;25.108;2023-02-14T03:05:24;100605.66;;;-1.21;100.00
21960;BME280;11144;43.030;25.108;2023-02-14T03:06:59;100615.13;;;-1.22;100.00
21960;BME280;11144;43.030;25.108;2023-02-14T03:08:53;100595.13;;;-1.26;100.00
21960;BME280;11144;43.030;25.108;2023-02-14T03:10:29;100602.22;;;-1.20;100.00
21960;BME280;11144;43.030;25.108;2023-02-14T03:12:11;100589.81;;;-1.29;100.00
21960;BME280;11144;43.030;25.108;2023-02-14T03:14:07;100587.03;;;-1.35;100.00
21960;BME280;11144;43.030;25.108;2023-02-14T03:15:52;100598.44;;;-1.30;100.00
21960;BME280;11144;43.030;25.108;2023-02-14T03:17:36;100604.53;;;-1.28;100.00
21960;BME280;11144;43.030;25.108;2023-02-14T03:19:32;100581.84;;;-1.35;100.00
21960;BME280;11144;43.030;25.108;2023-02-14T03:21:17;100585.59;;;-1.27;100.00
21960;BME280;11144;43.030;25.108;2023-02-14T03:23:00;100602.06;;;-1.25;100.00
21960;BME280;11144;43.030;25.108;2023-02-14T03:24:43;100597.81;;;-1.23;100.00
21960;BME280;11144;43.030;25.108;2023-02-14T03:26:24;100594.28;;;-1.25;100.00
21960;BME280;11144;43.030;25.108;2023-02-14T03:28:03;100600.25;;;-1.27;100.00
21960;BME280;11144;43.030;25.108;2023-02-14T03:29:51;100589.72;;;-1.32;100.00
21960;BME280;11144;43.030;25.108;2023-02-14T03:31:29;100595.66;;;-1.36;100.00
21960;BME280;11144;43.030;25.108;2023-02-14T03:33:11;100595.69;;;-1.34;100.00
21960;BME280;11144;43.030;25.108;2023-02-14T03:34:53;100583.53;;;-1.37;100.00
21960;BME280;11144;43.030;25.108;2023-02-14T03:36:30;100589.78;;;-1.30;100.00
21960;BME280;11144;43.030;25.108;2023-02-14T03:38:14;100585.59;;;-1.27;100.00
21960;BME280;11144;43.030;25.108;2023-02-14T03:39:57;100589.09;;;-1.25;100.00
21960;BME280;11144;43.030;25.108;2023-02-14T03:41:36;100576.84;;;-1.29;100.00
21960;BME280;11144;43.030;25.108;2023-02-14T03:43:14;100583.72;;;-1.31;100.00
21960;BME280;11144;43.030;25.108;2023-02-14T04:00:53;100550.03;;;-1.29;100.00
21960;BME280;11144;43.030;25.108;2023-02-14T04:02:33;100550.81;;;-1.32;100.00
21960;BME280;11144;43.030;25.108;2023-02-14T04:04:09;100546.59;;;-1.30;100.00
21960;BME280;11144;43.030;25.108;2023-02-14T04:05:45;100543.78;;;-1.36;100.00
21960;BME280;11144;43.030;25.108;2023-02-14T04:07:23;100533.38;;;-1.37;100.00
21960;BME280;11144;43.030;25.108;2023-02-14T04:08:57;100534.31;;;-1.35;100.00
21960;BME280;11144;43.030;25.108;2023-02-14T04:10:30;100536.09;;;-1.33;100.00
21960;BME280;11144;43.030;25.108;2023-02-14T04:12:04;100509.06;;;-1.41;100.00
21960;BME280;11144;43.030;25.108;2023-02-14T04:13:38;100533.50;;;-1.33;100.00
21960;BME280;11144;43.030;25.108;2023-02-14T04:15:11;100522.34;;;-1.30;100.00
21960;BME280;11144;43.030;25.108;2023-02-14T04:16:45;100529.53;;;-1.22;100.00
21960;BME280;11144;43.030;25.108;2023-02-14T04:18:36;100529.69;;;-1.17;100.00
21960;BME280;11144;43.030;25.108;2023-02-14T04:20:30;100527.28;;;-1.10;100.00
21960;BME280;11144;43.030;25.108;2023-02-14T04:22:03;100523.97;;;-1.06;100.00
21960;BME280;11144;43.030;25.108;2023-02-14T04:23:36;100529.16;;;-1.06;100.00
21960;BME280;11144;43.030;25.108;2023-02-14T04:25:09;100518.84;;;-1.03;100.00
21960;BME280;11144;43.030;25.108;2023-02-14T04:26:42;100523.88;;;-1.09;100.00
21960;BME280;11144;43.030;25.108;2023-02-14T04:28:25;100520.09;;;-1.20;100.00
21960;BME280;11144;43.030;25.108;2023-02-14T04:29:58;100523.47;;;-1.22;100.00
21960;BME280;11144;43.030;25.108;2023-02-14T04:31:31;100520.75;;;-1.27;100.00
21960;BME280;11144;43.030;25.108;2023-02-14T04:33:06;100512.56;;;-1.39;100.00
21960;BME280;11144;43.030;25.108;2023-02-14T04:34:41;100514.34;;;-1.38;100.00
21960;BME280;11144;43.030;25.108;2023-02-14T04:36:14;100519.72;;;-1.32;100.00
21960;BME280;11144;43.030;25.108;2023-02-14T04:37:46;100518.91;;;-1.31;100.00
21960;BME280;11144;43.030;25.108;2023-02-14T04:39:20;100523.25;;;-1.30;100.00
21960;BME280;11144;43.030;25.108;2023-02-14T04:40:53;100512.22;;;-1.23;100.00
21960;BME280;11144;43.030;25.108;2023-02-14T04:42:26;100515.78;;;-1.19;100.00
21960;BME280;11144;43.030;25.108;2023-02-14T04:43:59;100509.03;;;-1.13;100.00
21960;BME280;11144;43.030;25.108;2023-02-14T04:45:37;100515.25;;;-1.08;100.00
21960;BME280;11144;43.030;25.108;2023-02-14T04:47:10;100508.38;;;-1.06;100.00
21960;BME280;11144;43.030;25.108;2023-02-14T04:48:45;100506.72;;;-1.04;100.00
21960;BME280;11144;43.030;25.108;2023-02-14T04:50:18;100503.19;;;-1.06;100.00
21960;BME280;11144;43.030;25.108;2023-02-14T04:51:54;100495.22;;;-1.13;100.00
21960;BME280;11144;43.030;25.108;2023-02-14T04:53:27;100508.38;;;-1.06;100.00
21960;BME280;11144;43.030;25.108;2023-02-14T04:55:00;100501.63;;;-1.01;100.00
21960;BME280;11144;43.030;25.108;2023-02-14T04:56:35;100498.19;;;-1.00;100.00
21960;BME280;11144;43.030;25.108;2023-02-14T04:58:08;100500.88;;;-0.97;100.00
21960;BME280;11144;43.030;25.108;2023-02-14T04:59:41;100506.16;;;-0.94;100.00
21960;BME280;11144;43.030;25.108;2023-02-14T05:01:14;100503.63;;;-0.91;100.00
21960;BME280;11144;43.030;25.108;2023-02-14T05:02:48;100518.44;;;-0.88;100.00
21960;BME280;11144;43.030;25.108;2023-02-14T05:04:23;100521.09;;;-0.87;100.00
21960;BME280;11144;43.030;25.108;2023-02-14T05:05:56;100534.16;;;-0.82;100.00
21960;BME280;11144;43.030;25.108;2023-02-14T05:07:29;100523.00;;;-0.80;100.00
21960;BME280;11144;43.030;25.108;2023-02-14T05:12:31;100512.41;;;-0.56;100.00
21960;BME280;11144;43.030;25.108;2023-02-14T05:14:04;100507.31;;;-0.53;100.00
21960;BME280;11144;43.030;25.108;2023-02-14T05:15:37;100511.88;;;-0.45;100.00
21960;BME280;11144;43.030;25.108;2023-02-14T05:17:10;100513.72;;;-0.41;100.00
21960;BME280;11144;43.030;25.108;2023-02-14T05:18:43;100512.88;;;-0.40;100.00
21960;BME280;11144;43.030;25.108;2023-02-14T05:20:18;100511.59;;;-0.54;100.00
21960;BME280;11144;43.030;25.108;2023-02-14T05:21:51;100513.03;;;-0.65;100.00
21960;BME280;11144;43.030;25.108;2023-02-14T05:23:25;100511.84;;;-0.77;100.00
21960;BME280;11144;43.030;25.108;2023-02-14T05:24:58;100516.84;;;-0.83;100.00
21960;BME280;11144;43.030;25.108;2023-02-14T05:26:31;100510.00;;;-0.81;100.00
21960;BME280;11144;43.030;25.108;2023-02-14T05:28:05;100526.09;;;-0.62;100.00
21960;BME280;11144;43.030;25.108;2023-02-14T05:29:38;100531.63;;;-0.51;100.00
21960;BME280;11144;43.030;25.108;2023-02-14T05:31:12;100537.84;;;-0.45;100.00
21960;BME280;11144;43.030;25.108;2023-02-14T05:32:45;100536.16;;;-0.43;100.00
21960;BME280;11144;43.030;25.108;2023-02-14T05:34:19;100531.97;;;-0.38;100.00
21960;BME280;11144;43.030;25.108;2023-02-14T05:35:54;100532.88;;;-0.36;100.00
21960;BME280;11144;43.030;25.108;2023-02-14T05:37:27;100524.19;;;-0.38;100.00
21960;BME280;11144;43.030;25.108;2023-02-14T05:39:00;100532.06;;;-0.35;100.00
21960;BME280;11144;43.030;25.108;2023-02-14T05:40:34;100528.53;;;-0.37;100.00
21960;BME280;11144;43.030;25.108;2023-02-14T05:42:07;100536.41;;;-0.34;100.00
21960;BME280;11144;43.030;25.108;2023-02-14T05:43:43;100525.19;;;-0.33;100.00
21960;BME280;11144;43.030;25.108;2023-02-14T05:45:16;100535.69;;;-0.28;100.00
21960;BME280;11144;43.030;25.108;2023-02-14T05:46:50;100553.94;;;-0.27;100.00
21960;BME280;11144;43.030;25.108;2023-02-14T05:48:23;100554.03;;;-0.24;100.00
21960;BME280;11144;43.030;25.108;2023-02-14T05:49:57;100546.03;;;-0.30;100.00
21960;BME280;11144;43.030;25.108;2023-02-14T05:51:31;100551.31;;;-0.27;100.00
21960;BME280;11144;43.030;25.108;2023-02-14T05:53:05;100540.19;;;-0.23;100.00
21960;BME280;11144;43.030;25.108;2023-02-14T05:54:38;100545.38;;;-0.23;100.00
21960;BME280;11144;43.030;25.108;2023-02-14T05:56:11;100550.69;;;-0.18;100.00
21960;BME280;11144;43.030;25.108;2023-02-14T05:57:46;100526.34;;;-0.22;100.00
21960;BME280;11144;43.030;25.108;2023-02-14T05:59:19;100555.44;;;-0.02;100.00
21960;BME280;11144;43.030;25.108;2023-02-14T06:00:52;100541.44;;;-0.09;100.00
21960;BME280;11144;43.030;25.108;2023-02-14T06:02:25;100542.09;;;-0.16;100.00
21960;BME280;11144;43.030;25.108;2023-02-14T06:03:59;100550.75;;;-0.17;100.00
21960;BME280;11144;43.030;25.108;2023-02-14T06:05:33;100559.53;;;-0.12;100.00
21960;BME280;11144;43.030;25.108;2023-02-14T06:07:07;100561.41;;;-0.06;100.00
21960;BME280;11144;43.030;25.108;2023-02-14T06:08:40;100562.34;;;-0.03;100.00
21960;BME280;11144;43.030;25.108;2023-02-14T06:10:14;100556.34;;;-0.02;100.00
21960;BME280;11144;43.030;25.108;2023-02-14T06:11:47;100550.16;;;-0.05;100.00
21960;BME280;11144;43.030;25.108;2023-02-14T06:13:20;100561.59;;;0.01;100.00
21960;BME280;11144;43.030;25.108;2023-02-14T06:14:56;100542.72;;;0.08;100.00
21960;BME280;11144;43.030;25.108;2023-02-14T06:16:29;100546.63;;;0.26;100.00
21960;BME280;11144;43.030;25.108;2023-02-14T06:18:03;100547.81;;;0.38;100.00
21960;BME280;11144;43.030;25.108;2023-02-14T06:19:36;100549.91;;;0.54;100.00
21960;BME280;11144;43.030;25.108;2023-02-14T06:21:10;100551.81;;;0.61;100.00
21960;BME280;11144;43.030;25.108;2023-02-14T06:22:44;100545.91;;;0.68;100.00
21960;BME280;11144;43.030;25.108;2023-02-14T06:24:17;100543.75;;;0.86;100.00
21960;BME280;11144;43.030;25.108;2023-02-14T06:25:51;100543.19;;;1.01;100.00
21960;BME280;11144;43.030;25.108;2023-02-14T06:27:24;100548.78;;;1.19;100.00
21960;BME280;11144;43.030;25.108;2023-02-14T06:28:58;100543.00;;;1.32;100.00
21960;BME280;11144;43.030;25.108;2023-02-14T06:30:31;100542.28;;;1.39;100.00
21960;BME280;11144;43.030;25.108;2023-02-14T06:32:05;100534.53;;;1.43;100.00
21960;BME280;11144;43.030;25.108;2023-02-14T06:33:38;100541.22;;;1.74;100.00
21960;BME280;11144;43.030;25.108;2023-02-14T06:35:11;100530.25;;;1.91;100.00
21960;BME280;11144;43.030;25.108;2023-02-14T06:36:45;100526.38;;;2.16;100.00
21960;BME280;11144;43.030;25.108;2023-02-14T06:38:19;100535.63;;;2.51;100.00
21960;BME280;11144;43.030;25.108;2023-02-14T06:39:53;100530.69;;;2.69;100.00
21960;BME280;11144;43.030;25.108;2023-02-14T06:41:26;100537.72;;;2.73;100.00
21960;BME280;11144;43.030;25.108;2023-02-14T06:42:59;100550.97;;;2.86;100.00
21960;BME280;11144;43.030;25.108;2023-02-14T06:44:33;100551.19;;;3.03;100.00
21960;BME280;11144;43.030;25.108;2023-02-14T06:46:06;100554.94;;;3.20;100.00
21960;BME280;11144;43.030;25.108;2023-02-14T06:47:39;100552.50;;;3.35;100.00
21960;BME280;11144;43.030;25.108;2023-02-14T06:49:13;100563.78;;;3.31;100.00
21960;BME280;11144;43.030;25.108;2023-02-14T06:50:46;100554.25;;;3.36;100.00
21960;BME280;11144;43.030;25.108;2023-02-14T06:52:20;100567.44;;;3.43;100.00
21960;BME280;11144;43.030;25.108;2023-02-14T06:53:54;100556.16;;;3.46;100.00
21960;BME280;11144;43.030;25.108;2023-02-14T06:55:27;100563.31;;;3.62;100.00
21960;BME280;11144;43.030;25.108;2023-02-14T06:57:00;100570.44;;;3.78;100.00
21960;BME280;11144;43.030;25.108;2023-02-14T06:58:34;100556.72;;;3.97;100.00
21960;BME280;11144;43.030;25.108;2023-02-14T07:00:08;100567.38;;;4.15;100.00
21960;BME280;11144;43.030;25.108;2023-02-14T07:01:42;100567.53;;;4.30;100.00
21960;BME280;11144;43.030;25.108;2023-02-14T07:03:15;100557.13;;;4.39;100.00
21960;BME280;11144;43.030;25.108;2023-02-14T07:04:48;100561.59;;;4.49;100.00
21960;BME280;11144;43.030;25.108;2023-02-14T07:06:21;100558.16;;;4.55;100.00
21960;BME280;11144;43.030;25.108;2023-02-14T07:07:55;100553.81;;;4.61;100.00
21960;BME280;11144;43.030;25.108;2023-02-14T07:09:29;100557.44;;;4.75;100.00
21960;BME280;11144;43.030;25.108;2023-02-14T07:11:03;100568.81;;;4.80;100.00
21960;BME280;11144;43.030;25.108;2023-02-14T07:12:36;100555.72;;;4.83;100.00
21960;BME280;11144;43.030;25.108;2023-02-14T07:14:10;100554.00;;;4.88;100.00
21960;BME280;11144;43.030;25.108;2023-02-14T07:15:44;100564.56;;;4.97;100.00
21960;BME280;11144;43.030;25.108;2023-02-14T07:17:18;100558.50;;;5.10;100.00
21960;BME280;11144;43.030;25.108;2023-02-14T07:18:51;100554.28;;;5.30;100.00
21960;BME280;11144;43.030;25.108;2023-02-14T07:20:24;100557.84;;;5.47;100.00
21960;BME280;11144;43.030;25.108;2023-02-14T07:21:57;100560.50;;;5.56;100.00
21960;BME280;11144;43.030;25.108;2023-02-14T07:23:31;100561.41;;;5.61;100.00
21960;BME280;11144;43.030;25.108;2023-02-14T07:25:10;100559.66;;;5.63;100.00
21960;BME280;11144;43.030;25.108;2023-02-14T07:26:43;100556.19;;;5.67;100.00
21960;BME280;11144;43.030;25.108;2023-02-14T07:28:16;100563.19;;;5.68;100.00
21960;BME280;11144;43.030;25.108;2023-02-14T07:29:50;100559.69;;;5.66;100.00
21960;BME280;11144;43.030;25.108;2023-02-14T07:31:24;100566.66;;;5.64;100.00
21960;BME280;11144;43.030;25.108;2023-02-14T07:32:57;100564.03;;;5.63;100.00
21960;BME280;11144;43.030;25.108;2023-02-14T07:34:30;100563.16;;;5.64;100.00
21960;BME280;11144;43.030;25.108;2023-02-14T07:36:04;100564.06;;;5.67;100.00
21960;BME280;11144;43.030;25.108;2023-02-14T07:37:38;100566.69;;;5.67;100.00
21960;BME280;11144;43.030;25.108;2023-02-14T07:39:11;100575.44;;;5.72;100.00
21960;BME280;11144;43.030;25.108;2023-02-14T07:40:45;100569.31;;;5.69;100.00
21960;BME280;11144;43.030;25.108;2023-02-14T07:42:19;100570.19;;;5.72;100.00
21960;BME280;11144;43.030;25.108;2023-02-14T07:43:52;100571.94;;;5.73;100.00
21960;BME280;11144;43.030;25.108;2023-02-14T07:45:25;100568.41;;;5.68;100.00
21960;BME280;11144;43.030;25.108;2023-02-14T07:46:59;100571.06;;;5.71;100.00
21960;BME280;11144;43.030;25.108;2023-02-14T07:48:32;100547.44;;;5.71;100.00
21960;BME280;11144;43.030;25.108;2023-02-14T07:50:06;100556.19;;;5.76;100.00
21960;BME280;11144;43.030;25.108;2023-02-14T07:51:39;100559.78;;;5.81;100.00
21960;BME280;11144;43.030;25.108;2023-02-14T07:53:12;100562.38;;;5.84;100.00
21960;BME280;11144;43.030;25.108;2023-02-14T07:54:45;100572.00;;;5.82;100.00
21960;BME280;11144;43.030;25.108;2023-02-14T07:56:20;100573.78;;;5.86;100.00
21960;BME280;11144;43.030;25.108;2023-02-14T07:57:54;100575.53;;;5.93;100.00
21960;BME280;11144;43.030;25.108;2023-02-14T07:59:27;100572.00;;;5.88;100.00
21960;BME280;11144;43.030;25.108;2023-02-14T08:01:00;100573.78;;;5.95;100.00
21960;BME280;11144;43.030;25.108;2023-02-14T08:02:33;100572.91;;;5.93;100.00
21960;BME280;11144;43.030;25.108;2023-02-14T08:04:08;100577.28;;;5.91;100.00
21960;BME280;11144;43.030;25.108;2023-02-14T08:05:41;100556.25;;;5.88;100.00
21960;BME280;11144;43.030;25.108;2023-02-14T08:07:15;100565.03;;;5.99;100.00
21960;BME280;11144;43.030;25.108;2023-02-14T08:08:48;100556.31;;;6.00;100.00
21960;BME280;11144;43.030;25.108;2023-02-14T08:10:21;100561.56;;;6.00;100.00
21960;BME280;11144;43.030;25.108;2023-02-14T08:11:57;100563.31;;;5.98;100.00
21960;BME280;11144;43.030;25.108;2023-02-14T08:13:47;100575.53;;;6.01;100.00
21960;BME280;11144;43.030;25.108;2023-02-14T08:15:21;100560.69;;;6.00;100.00
21960;BME280;11144;43.030;25.108;2023-02-14T08:17:12;100568.53;;;5.95;100.00
21960;BME280;11144;43.030;25.108;2023-02-14T08:18:45;100569.41;;;5.96;100.00
21960;BME280;11144;43.030;25.108;2023-02-14T08:20:18;100570.28;;;5.92;100.00
21960;BME280;11144;43.030;25.108;2023-02-14T08:21:52;100571.16;;;5.95;100.00
21960;BME280;11144;43.030;25.108;2023-02-14T08:23:26;100566.75;;;5.88;100.00
21960;BME280;11144;43.030;25.108;2023-02-14T08:24:59;100563.22;;;5.80;100.00
21960;BME280;11144;43.030;25.108;2023-02-14T08:26:32;100561.50;;;5.82;100.00
21960;BME280;11144;43.030;25.108;2023-02-14T08:28:07;100570.28;;;5.81;100.00
21960;BME280;11144;43.030;25.108;2023-02-14T08:29:40;100565.91;;;5.86;100.00
21960;BME280;11144;43.030;25.108;2023-02-14T08:31:21;100572.88;;;5.86;100.00
21960;BME280;11144;43.030;25.108;2023-02-14T08:33:06;100579.03;;;5.89;100.00
21960;BME280;11144;43.030;25.108;2023-02-14T08:34:40;100559.78;;;5.89;100.00
21960;BME280;11144;43.030;25.108;2023-02-14T08:36:13;100561.53;;;5.91;100.00
21960;BME280;11144;43.030;25.108;2023-02-14T08:37:48;100569.41;;;5.94;100.00
21960;BME280;11144;43.030;25.108;2023-02-14T08:39:21;100566.81;;;6.00;100.00